Gilboa, New York
Current Conditions -  °F | °C
As of 9:51 AM on Saturday 22 Nov 2014 (Local Time) from KALB Reporting Station
Broken Clouds Broken Clouds  
Wind Chill: 14°   Ceiling: 14000
Heat Index: 25°   Visibility: 10mi
Dew Point: 13°   Wind: 12mph
Humidity: 60%   Direction: 170°S
Pressure: 30.35"   Gusts: 20mph
Location:  42.4°N, 74.45°W
Report Text: KALB 221451Z 17010G17KT 10SM BKN140 BKN260 M04/M11 A3035 RMK AO2 SLP280 T10391106 56021
Loading
Personal Weather Stations






























Interactive Weather Map New forecast layout! Learn more

10-Day Weather Forecast

Advertisements
Track Severe Weather on mobile